Time;durP1;ratioP1;P1;durP2;ratioP2;P2;SDS_P1;SDS_P2;PMS_P1;PMS_P2;Temp;Humidity;BMP_temperature;BMP_pressure;BME280_temperature;BME280_humidity;BME280_pressure;Samples;Min_cycle;Max_cycle;Signal;HPM_P1;HPM_P2
2023/05/07 00:01:18;;;;;;;24.65;17.80;;;11.50;99.90;;;;;;5062411;28;20090;-74
2023/05/07 00:03:44;;;;;;;24.85;17.55;;;11.50;99.90;;;;;;5066987;28;20028;-74
2023/05/07 00:06:12;;;;;;;24.88;17.38;;;11.40;99.90;;;;;;5058226;28;20076;-73
2023/05/07 00:08:38;;;;;;;26.90;19.08;;;11.40;99.90;;;;;;5055548;28;20444;-73
2023/05/07 00:11:04;;;;;;;25.75;18.25;;;11.40;99.90;;;;;;5064066;28;20096;-73
2023/05/07 00:13:35;;;;;;;28.67;18.33;;;11.40;99.90;;;;;;5061021;28;20069;-73
2023/05/07 00:16:04;;;;;;;26.70;18.00;;;11.40;99.90;;;;;;5042743;28;20095;-73
2023/05/07 00:18:30;;;;;;;27.70;18.38;;;11.30;99.90;;;;;;5070168;28;20361;-73
2023/05/07 00:20:56;;;;;;;28.55;18.10;;;11.40;99.90;;;;;;5058119;28;20146;-73
2023/05/07 00:23:23;;;;;;;29.20;19.75;;;11.30;99.90;;;;;;5066827;28;20077;-73
2023/05/07 00:25:48;;;;;;;29.75;20.20;;;11.30;99.90;;;;;;5064903;28;20112;-73
2023/05/07 00:28:14;;;;;;;28.38;19.73;;;11.40;99.90;;;;;;5064708;28;20028;-73
2023/05/07 00:30:40;;;;;;;25.70;19.40;;;11.30;99.90;;;;;;5053123;28;20081;-73
2023/05/07 00:33:05;;;;;;;27.80;19.60;;;11.30;99.90;;;;;;5066804;28;20095;-73
2023/05/07 00:35:31;;;;;;;27.38;19.25;;;11.30;99.90;;;;;;5056118;28;20032;-74
2023/05/07 00:37:57;;;;;;;29.13;19.42;;;11.30;99.90;;;;;;5063917;28;20047;-73
2023/05/07 00:40:23;;;;;;;26.30;19.20;;;11.30;99.90;;;;;;5084431;28;20086;-74
2023/05/07 00:42:48;;;;;;;28.90;19.23;;;11.30;99.90;;;;;;5074266;28;20240;-73
2023/05/07 00:45:15;;;;;;;28.80;19.35;;;11.30;99.90;;;;;;5061659;28;20082;-73
2023/05/07 00:47:41;;;;;;;24.92;18.52;;;11.30;99.90;;;;;;5062295;28;20036;-73
2023/05/07 00:50:10;;;;;;;28.38;19.70;;;11.30;99.90;;;;;;5057641;28;20050;-73
2023/05/07 00:52:37;;;;;;;27.58;19.38;;;11.30;99.90;;;;;;5066075;28;21028;-73
2023/05/07 00:55:06;;;;;;;26.30;19.58;;;11.30;99.90;;;;;;5067815;28;20278;-73
2023/05/07 00:57:40;;;;;;;28.70;19.73;;;11.30;99.90;;;;;;5064588;28;20032;-73
2023/05/07 01:00:08;;;;;;;27.65;19.17;;;11.30;99.90;;;;;;5066720;28;20182;-73
2023/05/07 01:02:35;;;;;;;30.27;21.73;;;11.30;99.90;;;;;;5049595;28;20347;-73
2023/05/07 01:05:03;;;;;;;28.35;20.58;;;11.40;99.90;;;;;;5082103;28;20040;-73
2023/05/07 01:07:30;;;;;;;27.17;20.85;;;11.30;99.90;;;;;;5046945;28;20095;-73
2023/05/07 01:09:57;;;;;;;30.45;21.48;;;11.30;99.90;;;;;;5063367;28;20052;-73
2023/05/07 01:12:24;;;;;;;29.27;20.50;;;11.30;99.90;;;;;;5058767;28;20032;-74
2023/05/07 01:14:50;;;;;;;28.73;21.08;;;11.30;99.90;;;;;;5064897;28;20181;-73
2023/05/07 01:17:16;;;;;;;27.40;20.88;;;11.40;99.90;;;;;;5068829;28;21283;-74
2023/05/07 01:19:42;;;;;;;27.83;21.42;;;11.30;99.90;;;;;;5066156;28;20277;-73
2023/05/07 01:22:14;;;;;;;29.65;21.42;;;11.30;99.90;;;;;;5052649;28;20056;-74
2023/05/07 01:24:41;;;;;;;32.17;21.95;;;11.30;99.90;;;;;;5064481;28;20047;-73
2023/05/07 01:27:07;;;;;;;29.60;21.27;;;11.30;99.90;;;;;;5073277;28;20051;-74
2023/05/07 01:29:32;;;;;;;30.70;21.25;;;11.30;99.90;;;;;;5068372;28;20312;-74
2023/05/07 01:32:00;;;;;;;26.38;20.45;;;11.30;99.90;;;;;;5068843;28;20047;-73
2023/05/07 01:34:31;;;;;;;29.65;20.35;;;11.30;99.90;;;;;;5062172;28;20021;-73
2023/05/07 01:36:58;;;;;;;32.17;21.38;;;11.30;99.90;;;;;;5064794;28;20100;-73
2023/05/07 01:39:29;;;;;;;26.08;19.60;;;11.30;99.90;;;;;;5069731;28;20112;-74
2023/05/07 01:41:56;;;;;;;30.50;20.77;;;11.30;99.90;;;;;;5048000;28;20025;-74
2023/05/07 01:44:22;;;;;;;27.80;20.95;;;11.30;99.90;;;;;;5069028;28;20060;-74
2023/05/07 01:46:48;;;;;;;30.20;21.40;;;11.30;99.90;;;;;;5047020;28;20055;-74
2023/05/07 01:49:15;;;;;;;30.40;22.10;;;11.30;99.90;;;;;;5069465;28;20266;-74
2023/05/07 01:51:41;;;;;;;28.75;20.95;;;11.30;99.90;;;;;;5056212;28;20046;-74
2023/05/07 01:54:08;;;;;;;29.33;21.50;;;11.20;99.90;;;;;;5060645;28;20032;-74
2023/05/07 01:56:34;;;;;;;29.00;20.45;;;11.30;99.90;;;;;;5060841;28;20096;-74
2023/05/07 01:59:00;;;;;;;32.10;21.25;;;11.20;99.90;;;;;;5062996;28;20031;-74
2023/05/07 02:01:25;;;;;;;28.17;19.75;;;11.20;99.90;;;;;;5047025;28;20443;-74
2023/05/07 02:03:51;;;;;;;29.73;21.58;;;11.20;99.90;;;;;;5062315;28;20048;-74
2023/05/07 02:06:17;;;;;;;29.23;21.08;;;11.20;99.90;;;;;;5063665;28;20029;-74
2023/05/07 02:08:43;;;;;;;29.10;20.83;;;11.20;99.90;;;;;;5064042;28;20032;-74
2023/05/07 02:11:08;;;;;;;31.83;21.40;;;11.20;99.90;;;;;;5053399;28;20089;-74
2023/05/07 02:13:34;;;;;;;31.27;22.35;;;11.20;99.90;;;;;;5067794;28;20016;-74
2023/05/07 02:16:01;;;;;;;33.05;22.88;;;11.20;99.90;;;;;;5061566;28;20057;-74
2023/05/07 02:18:26;;;;;;;32.70;23.40;;;11.20;99.90;;;;;;5057112;28;20028;-74
2023/05/07 02:20:52;;;;;;;30.73;21.77;;;11.20;99.90;;;;;;5056526;28;20300;-74
2023/05/07 02:23:18;;;;;;;33.92;24.55;;;11.20;99.90;;;;;;5058157;28;20024;-74
2023/05/07 02:25:44;;;;;;;32.55;25.10;;;11.20;99.90;;;;;;5063242;28;22318;-74
2023/05/07 02:28:10;;;;;;;32.10;24.48;;;11.20;99.90;;;;;;5049942;28;20020;-74
2023/05/07 02:30:37;;;;;;;34.97;25.42;;;11.10;99.90;;;;;;5046057;28;20359;-74
2023/05/07 02:33:02;;;;;;;32.88;23.95;;;11.10;99.90;;;;;;5068479;28;20288;-74
2023/05/07 02:35:28;;;;;;;31.50;23.88;;;11.10;99.90;;;;;;5059917;28;20048;-74
2023/05/07 02:37:54;;;;;;;34.28;24.25;;;11.10;99.90;;;;;;5064627;28;20235;-74
2023/05/07 02:40:20;;;;;;;35.30;25.45;;;11.10;99.90;;;;;;5047447;28;20258;-74
2023/05/07 02:42:45;;;;;;;34.95;25.92;;;11.10;99.90;;;;;;5064400;28;20049;-74
2023/05/07 02:45:11;;;;;;;34.67;23.90;;;11.10;99.90;;;;;;5061082;28;20033;-74
2023/05/07 02:47:37;;;;;;;32.25;23.08;;;11.10;99.90;;;;;;5028514;28;20262;-74
2023/05/07 02:50:03;;;;;;;32.83;23.50;;;11.10;99.90;;;;;;5058459;28;20051;-74
2023/05/07 02:52:29;;;;;;;31.25;20.92;;;11.00;99.90;;;;;;5066694;28;20318;-75
2023/05/07 02:54:54;;;;;;;31.10;22.27;;;11.10;99.90;;;;;;5065812;28;20072;-75
2023/05/07 02:57:20;;;;;;;32.42;22.45;;;11.00;99.90;;;;;;5076163;28;20103;-74
2023/05/07 02:59:46;;;;;;;30.60;22.08;;;11.00;99.90;;;;;;5060364;28;20028;-74
2023/05/07 03:02:12;;;;;;;31.40;22.25;;;11.00;99.90;;;;;;5065730;28;20142;-75
2023/05/07 03:04:39;;;;;;;31.63;22.05;;;11.00;99.90;;;;;;5063977;28;20036;-74
2023/05/07 03:07:05;;;;;;;32.08;22.55;;;11.00;99.90;;;;;;5061651;28;20055;-74
2023/05/07 03:09:31;;;;;;;31.85;22.38;;;11.00;99.90;;;;;;5065666;28;20255;-74
2023/05/07 03:11:57;;;;;;;32.17;22.85;;;11.00;99.90;;;;;;5057755;28;20028;-74
2023/05/07 03:14:23;;;;;;;30.65;22.10;;;11.00;99.90;;;;;;5065904;28;20039;-74
2023/05/07 03:16:50;;;;;;;34.53;23.48;;;11.00;99.90;;;;;;5066924;28;20040;-74
2023/05/07 03:19:15;;;;;;;29.60;20.73;;;10.90;99.90;;;;;;5067212;28;20040;-75
2023/05/07 03:21:41;;;;;;;31.17;21.67;;;10.90;99.90;;;;;;5067769;28;20073;-74
2023/05/07 03:24:07;;;;;;;31.00;21.63;;;10.90;99.90;;;;;;5064182;28;20070;-74
2023/05/07 03:26:33;;;;;;;31.30;22.08;;;10.90;99.90;;;;;;5055374;28;20025;-75
2023/05/07 03:28:58;;;;;;;34.97;23.23;;;10.90;99.90;;;;;;5068457;28;20032;-74
2023/05/07 03:31:24;;;;;;;30.45;21.58;;;10.90;99.90;;;;;;5066886;28;20090;-74
2023/05/07 03:33:55;;;;;;;31.35;22.20;;;10.90;99.90;;;;;;5052846;28;20028;-74
2023/05/07 03:36:22;;;;;;;31.38;22.30;;;10.90;99.90;;;;;;5064511;28;20039;-74
2023/05/07 03:38:48;;;;;;;30.73;22.17;;;10.90;99.90;;;;;;5066471;28;20346;-74
2023/05/07 03:41:14;;;;;;;34.38;24.23;;;10.90;99.90;;;;;;5064919;28;20070;-74
2023/05/07 03:43:40;;;;;;;31.45;22.08;;;10.90;99.90;;;;;;5063593;28;20056;-74
2023/05/07 03:46:05;;;;;;;34.05;23.15;;;10.90;99.90;;;;;;5080901;28;20228;-74
2023/05/07 03:48:31;;;;;;;33.53;22.63;;;10.90;99.90;;;;;;5069012;28;20028;-75
2023/05/07 03:50:58;;;;;;;33.85;23.50;;;10.80;99.90;;;;;;5065207;28;20099;-74
2023/05/07 03:53:24;;;;;;;33.30;24.52;;;10.80;99.90;;;;;;5059727;28;20192;-74
2023/05/07 03:55:49;;;;;;;30.25;22.75;;;10.80;99.90;;;;;;5063602;28;20365;-74
2023/05/07 03:58:15;;;;;;;32.95;23.00;;;10.80;99.90;;;;;;5056731;28;20016;-74
2023/05/07 04:00:41;;;;;;;36.25;25.02;;;10.80;99.90;;;;;;5063757;28;20286;-74
2023/05/07 04:03:07;;;;;;;34.20;24.80;;;10.80;99.90;;;;;;5058796;28;20196;-75
2023/05/07 04:05:33;;;;;;;35.47;23.42;;;10.80;99.90;;;;;;5066540;28;20127;-74
2023/05/07 04:07:59;;;;;;;31.85;22.40;;;10.80;99.90;;;;;;5083849;28;20028;-74
2023/05/07 04:10:25;;;;;;;32.08;22.60;;;10.70;99.90;;;;;;5066549;28;20035;-75
2023/05/07 04:12:51;;;;;;;32.22;22.25;;;10.80;99.90;;;;;;5071707;28;20035;-75
2023/05/07 04:15:17;;;;;;;34.63;22.92;;;10.70;99.90;;;;;;5060634;28;20020;-75
2023/05/07 04:17:43;;;;;;;32.58;23.42;;;10.70;99.90;;;;;;5062243;28;20024;-75
2023/05/07 04:20:16;;;;;;;30.15;22.42;;;10.70;99.90;;;;;;5065736;28;20131;-74
2023/05/07 04:22:42;;;;;;;32.22;21.85;;;10.70;99.90;;;;;;5064753;28;20148;-75
2023/05/07 04:25:09;;;;;;;28.55;21.20;;;10.70;99.90;;;;;;5053740;28;20036;-75
2023/05/07 04:27:35;;;;;;;30.75;21.88;;;10.70;99.90;;;;;;5073570;28;20028;-75
2023/05/07 04:30:02;;;;;;;29.33;19.90;;;10.70;99.90;;;;;;5073335;28;20061;-75
2023/05/07 04:32:29;;;;;;;28.25;19.92;;;10.70;99.90;;;;;;5075516;28;20040;-74
2023/05/07 04:34:55;;;;;;;28.45;19.77;;;10.70;99.90;;;;;;5077608;28;20190;-75
2023/05/07 04:37:21;;;;;;;28.33;20.55;;;10.60;99.90;;;;;;5070816;28;20112;-74
2023/05/07 04:39:47;;;;;;;27.55;19.98;;;10.60;99.90;;;;;;5078960;28;20054;-75
2023/05/07 04:42:17;;;;;;;28.63;20.48;;;10.60;99.90;;;;;;5070352;28;20040;-74
2023/05/07 04:44:44;;;;;;;27.38;19.88;;;10.60;99.90;;;;;;5075803;28;20446;-74
2023/05/07 04:47:10;;;;;;;27.75;19.45;;;10.60;99.90;;;;;;5057164;28;20031;-74
2023/05/07 04:49:36;;;;;;;26.23;19.25;;;10.60;99.90;;;;;;5072797;28;20060;-75
2023/05/07 04:52:03;;;;;;;28.38;19.73;;;10.60;99.90;;;;;;5068616;28;20041;-74
2023/05/07 04:54:29;;;;;;;29.23;19.77;;;10.60;99.90;;;;;;5061926;28;20076;-74
2023/05/07 04:56:55;;;;;;;26.20;19.00;;;10.60;99.90;;;;;;5054213;28;20297;-74
2023/05/07 04:59:21;;;;;;;26.77;19.17;;;10.60;99.90;;;;;;5076381;28;20028;-74
2023/05/07 05:01:47;;;;;;;30.05;18.98;;;10.60;99.90;;;;;;5071604;28;20021;-74
2023/05/07 05:04:13;;;;;;;29.00;19.55;;;10.60;99.90;;;;;;5075772;28;20309;-74
2023/05/07 05:06:39;;;;;;;27.08;19.08;;;10.60;99.90;;;;;;5058511;28;20071;-73
2023/05/07 05:09:04;;;;;;;27.75;18.73;;;10.60;99.90;;;;;;5050023;28;20048;-74
2023/05/07 05:11:31;;;;;;;29.17;19.75;;;10.60;99.90;;;;;;5044129;28;20039;-74
2023/05/07 05:13:56;;;;;;;26.75;19.88;;;10.60;99.90;;;;;;5077860;28;20040;-73
2023/05/07 05:16:22;;;;;;;25.10;18.80;;;10.60;99.90;;;;;;5056324;28;20372;-74
2023/05/07 05:18:48;;;;;;;27.88;19.17;;;10.60;99.90;;;;;;5072423;28;20048;-73
2023/05/07 05:21:14;;;;;;;26.90;19.02;;;10.70;99.90;;;;;;5069649;28;20042;-74
2023/05/07 05:23:40;;;;;;;27.10;19.23;;;10.70;99.90;;;;;;5057808;28;20123;-74
2023/05/07 05:26:05;;;;;;;27.25;19.33;;;10.60;99.90;;;;;;5060928;28;20332;-73
2023/05/07 05:28:31;;;;;;;24.70;18.27;;;10.60;99.90;;;;;;5071182;28;20277;-74
2023/05/07 05:30:57;;;;;;;26.05;18.77;;;10.60;99.90;;;;;;5087668;28;20288;-73
2023/05/07 05:33:22;;;;;;;24.67;18.77;;;10.60;99.90;;;;;;5071213;28;20051;-73
2023/05/07 05:35:49;;;;;;;25.77;18.73;;;10.70;99.90;;;;;;5069520;28;20036;-73
2023/05/07 05:38:15;;;;;;;23.40;17.58;;;10.60;99.90;;;;;;5061945;28;20032;-73
2023/05/07 05:40:41;;;;;;;27.58;19.33;;;10.60;99.90;;;;;;5060495;28;20123;-73
2023/05/07 05:43:06;;;;;;;27.67;20.15;;;10.70;99.90;;;;;;5073471;28;20028;-73
2023/05/07 05:45:32;;;;;;;28.83;20.52;;;10.70;99.90;;;;;;5057100;28;20321;-73
2023/05/07 05:47:58;;;;;;;26.02;19.23;;;10.70;99.90;;;;;;5068469;28;20039;-73
2023/05/07 05:50:24;;;;;;;25.58;18.83;;;10.70;99.90;;;;;;5050756;28;20036;-73
2023/05/07 05:52:50;;;;;;;25.92;19.00;;;10.70;99.90;;;;;;5067678;28;20032;-74
2023/05/07 05:55:16;;;;;;;24.80;18.05;;;10.70;99.90;;;;;;5059576;28;20066;-74
2023/05/07 05:57:42;;;;;;;24.23;18.80;;;9.90;99.90;;;;;;5065311;28;20040;-73
2023/05/07 06:00:08;;;;;;;25.35;18.40;;;10.70;99.90;;;;;;5066190;28;20037;-73
2023/05/07 06:02:34;;;;;;;24.98;18.90;;;10.70;99.90;;;;;;5039794;28;20040;-73
2023/05/07 06:05:00;;;;;;;27.45;20.48;;;10.70;99.90;;;;;;5071427;28;20028;-73
2023/05/07 06:07:25;;;;;;;28.08;20.45;;;10.70;99.90;;;;;;5063687;28;20163;-73
2023/05/07 06:09:51;;;;;;;26.45;20.75;;;10.70;99.90;;;;;;5074219;28;20298;-74
2023/05/07 06:12:17;;;;;;;29.02;21.65;;;10.70;99.90;;;;;;5053216;28;20147;-73
2023/05/07 06:14:45;;;;;;;27.63;20.88;;;10.70;99.90;;;;;;5075654;28;20107;-74
2023/05/07 06:17:11;;;;;;;29.45;22.13;;;12.00;99.90;;;;;;5046362;28;20262;-74
2023/05/07 06:19:37;;;;;;;28.90;22.92;;;10.70;99.90;;;;;;5063549;28;20031;-74
2023/05/07 06:22:02;;;;;;;30.33;24.17;;;10.70;99.90;;;;;;5065618;28;20048;-74
2023/05/07 06:24:28;;;;;;;31.33;24.45;;;10.70;99.90;;;;;;5083006;28;20038;-74
2023/05/07 06:26:54;;;;;;;30.42;23.85;;;10.70;99.90;;;;;;5057719;28;20036;-74
2023/05/07 06:29:20;;;;;;;32.10;23.63;;;10.70;99.90;;;;;;5080922;28;20185;-74
2023/05/07 06:31:46;;;;;;;32.00;23.70;;;10.80;99.90;;;;;;5079175;28;20052;-74
2023/05/07 06:34:15;;;;;;;29.65;22.13;;;10.80;99.90;;;;;;5068095;28;20041;-73
2023/05/07 06:36:41;;;;;;;29.20;21.77;;;10.80;99.90;;;;;;5061866;28;20032;-73
2023/05/07 06:39:07;;;;;;;27.08;20.15;;;10.80;99.90;;;;;;5064464;28;20086;-73
2023/05/07 06:41:33;;;;;;;25.02;19.42;;;10.80;99.90;;;;;;5069261;28;20341;-73
2023/05/07 06:43:58;;;;;;;27.33;18.55;;;10.80;99.90;;;;;;5067317;28;20070;-74
2023/05/07 06:46:24;;;;;;;25.60;18.92;;;10.80;99.90;;;;;;5075565;28;20067;-74
2023/05/07 06:48:50;;;;;;;25.67;18.20;;;10.80;99.90;;;;;;5056713;28;20281;-73
2023/05/07 06:51:15;;;;;;;25.40;18.13;;;10.90;99.90;;;;;;5045417;28;20048;-73
2023/05/07 06:53:41;;;;;;;26.85;18.63;;;10.90;99.90;;;;;;5043564;28;20320;-74
2023/05/07 06:56:07;;;;;;;24.75;17.67;;;10.90;99.90;;;;;;5079066;28;20092;-74
2023/05/07 06:58:33;;;;;;;24.63;17.95;;;11.00;99.90;;;;;;5053602;28;20222;-73
2023/05/07 07:00:58;;;;;;;27.05;18.50;;;11.00;99.90;;;;;;5067265;28;20070;-73
2023/05/07 07:03:24;;;;;;;25.90;18.60;;;11.00;99.90;;;;;;5085314;28;20045;-73
2023/05/07 07:05:54;;;;;;;23.75;17.33;;;11.00;99.90;;;;;;5031294;28;20032;-74
2023/05/07 07:08:21;;;;;;;24.73;17.30;;;11.10;99.90;;;;;;5071456;28;20058;-73
2023/05/07 07:10:47;;;;;;;23.75;17.17;;;11.10;99.90;;;;;;5068715;28;20032;-73
2023/05/07 07:13:13;;;;;;;23.92;17.42;;;11.20;99.90;;;;;;5057179;28;20077;-73
2023/05/07 07:15:39;;;;;;;26.38;18.08;;;11.20;99.90;;;;;;5066971;28;20036;-73
2023/05/07 07:18:06;;;;;;;23.90;17.38;;;11.30;99.90;;;;;;5076940;28;20020;-73
2023/05/07 07:20:32;;;;;;;25.20;18.08;;;11.30;99.90;;;;;;5093833;28;20028;-73
2023/05/07 07:22:58;;;;;;;26.13;17.83;;;11.30;99.90;;;;;;5065089;28;20266;-74
2023/05/07 07:25:23;;;;;;;26.58;18.33;;;11.20;99.90;;;;;;5073170;28;20048;-74
2023/05/07 07:27:49;;;;;;;24.90;17.05;;;11.20;99.90;;;;;;5078804;28;20070;-73
2023/05/07 07:30:15;;;;;;;25.90;18.23;;;11.20;99.90;;;;;;5077454;28;20307;-73
2023/05/07 07:32:41;;;;;;;24.85;17.63;;;11.20;99.90;;;;;;5069898;28;20099;-73
2023/05/07 07:35:07;;;;;;;26.75;18.10;;;11.20;99.90;;;;;;5085445;28;20032;-74
2023/05/07 07:37:33;;;;;;;25.25;18.13;;;11.20;99.90;;;;;;5073234;28;20251;-73
2023/05/07 07:39:59;;;;;;;26.42;18.08;;;11.20;99.90;;;;;;5069855;28;20052;-73
2023/05/07 07:42:25;;;;;;;25.25;17.77;;;11.30;99.90;;;;;;5079331;28;20347;-73
2023/05/07 07:44:51;;;;;;;26.08;17.92;;;11.20;99.90;;;;;;5070739;28;20039;-73
2023/05/07 07:47:17;;;;;;;29.73;18.90;;;11.20;99.90;;;;;;5049047;28;20264;-73
2023/05/07 07:49:42;;;;;;;24.17;17.88;;;11.30;99.90;;;;;;5069949;28;20033;-73
2023/05/07 07:52:08;;;;;;;26.80;18.88;;;11.30;99.90;;;;;;5093597;28;20031;-73
2023/05/07 07:54:34;;;;;;;25.63;18.33;;;11.40;99.90;;;;;;5046762;28;20213;-73
2023/05/07 07:57:01;;;;;;;26.92;18.13;;;11.40;99.90;;;;;;5073993;28;20028;-73
2023/05/07 07:59:27;;;;;;;25.25;18.10;;;11.40;99.90;;;;;;5081510;28;20059;-73
2023/05/07 08:01:55;;;;;;;24.98;18.10;;;11.50;99.90;;;;;;5079414;28;20289;-74
2023/05/07 08:04:21;;;;;;;25.33;18.30;;;11.50;99.90;;;;;;5068196;28;20170;-73
2023/05/07 08:06:47;;;;;;;25.25;17.60;;;11.50;99.90;;;;;;5047927;28;20028;-74
2023/05/07 08:09:12;;;;;;;25.40;18.20;;;11.60;99.90;;;;;;5074569;28;20119;-73
2023/05/07 08:11:39;;;;;;;25.05;17.70;;;11.60;99.90;;;;;;5073897;28;20032;-73
2023/05/07 08:14:04;;;;;;;25.58;18.55;;;11.70;99.90;;;;;;5048438;28;20178;-73
2023/05/07 08:16:30;;;;;;;25.77;18.90;;;11.80;99.90;;;;;;5069458;28;20035;-73
2023/05/07 08:18:56;;;;;;;26.55;18.85;;;11.90;99.90;;;;;;5056123;28;20079;-73
2023/05/07 08:21:22;;;;;;;24.00;17.67;;;12.00;99.90;;;;;;5057897;28;20036;-73
2023/05/07 08:23:48;;;;;;;27.20;18.90;;;12.10;99.90;;;;;;5052105;28;20186;-73
2023/05/07 08:26:14;;;;;;;24.90;17.25;;;12.20;99.90;;;;;;5063734;28;20032;-73
2023/05/07 08:28:40;;;;;;;25.73;17.90;;;12.20;99.90;;;;;;5058015;28;20341;-73
2023/05/07 08:31:06;;;;;;;25.48;17.95;;;12.30;99.90;;;;;;5067654;28;20024;-73
2023/05/07 08:33:31;;;;;;;27.17;19.23;;;12.40;99.90;;;;;;5077351;28;20042;-73
2023/05/07 08:35:58;;;;;;;24.38;17.92;;;12.40;99.90;;;;;;5082607;28;20028;-73
2023/05/07 08:38:23;;;;;;;24.25;17.65;;;12.50;99.90;;;;;;5049367;28;20052;-74
2023/05/07 08:40:49;;;;;;;24.10;17.50;;;12.60;99.90;;;;;;5079608;28;20056;-73
2023/05/07 08:43:16;;;;;;;25.25;17.30;;;12.60;99.90;;;;;;5063130;28;20036;-73
2023/05/07 08:45:45;;;;;;;26.55;18.27;;;12.70;99.90;;;;;;5089420;28;20068;-73
2023/05/07 08:48:15;;;;;;;24.90;18.00;;;12.70;99.90;;;;;;5077887;28;20037;-73
2023/05/07 08:50:41;;;;;;;27.45;17.90;;;12.70;99.90;;;;;;5085690;28;20037;-73
2023/05/07 08:53:07;;;;;;;23.80;17.25;;;12.70;99.90;;;;;;5086883;28;20025;-73
2023/05/07 08:55:33;;;;;;;24.75;18.23;;;12.70;99.90;;;;;;5080915;28;20086;-73
2023/05/07 08:58:00;;;;;;;26.65;17.73;;;12.70;99.90;;;;;;5057009;28;20025;-74
2023/05/07 09:00:26;;;;;;;23.60;17.33;;;12.70;99.90;;;;;;5044478;28;20341;-73
2023/05/07 09:02:53;;;;;;;23.20;17.75;;;12.70;99.90;;;;;;5053127;28;20051;-74
2023/05/07 09:05:19;;;;;;;24.60;17.50;;;12.80;99.90;;;;;;5070093;28;20052;-73
2023/05/07 09:07:46;;;;;;;26.48;17.60;;;12.80;99.90;;;;;;5046181;28;20032;-74
2023/05/07 09:10:12;;;;;;;25.98;18.38;;;12.80;99.90;;;;;;5069516;28;20037;-73
2023/05/07 09:12:39;;;;;;;27.55;19.38;;;12.90;99.90;;;;;;5057803;28;20052;-73
2023/05/07 09:15:06;;;;;;;24.80;18.13;;;12.90;99.90;;;;;;5069433;28;20087;-73
2023/05/07 09:17:31;;;;;;;26.65;18.30;;;12.90;99.90;;;;;;5072371;28;20220;-73
2023/05/07 09:20:04;;;;;;;24.42;17.33;;;13.00;99.90;;;;;;5090818;28;20362;-73
2023/05/07 09:22:32;;;;;;;23.45;17.38;;;13.10;99.90;;;;;;5070273;28;20025;-73
2023/05/07 09:24:58;;;;;;;24.92;17.33;;;13.20;99.90;;;;;;5065657;28;20266;-73
2023/05/07 09:27:25;;;;;;;26.38;17.77;;;13.30;99.90;;;;;;5063953;28;20040;-73
2023/05/07 09:29:52;;;;;;;23.23;16.92;;;13.50;99.90;;;;;;5066056;28;20037;-73
2023/05/07 09:32:17;;;;;;;22.27;16.05;;;13.60;99.90;;;;;;5065003;28;20044;-74
2023/05/07 09:34:43;;;;;;;24.67;17.50;;;13.60;99.90;;;;;;5061412;28;20278;-73
2023/05/07 09:37:12;;;;;;;25.45;17.25;;;13.70;99.90;;;;;;5058071;28;20078;-73
2023/05/07 09:39:41;;;;;;;22.60;16.45;;;13.70;99.90;;;;;;5064079;28;20029;-73
2023/05/07 09:42:07;;;;;;;23.25;16.33;;;13.80;99.90;;;;;;5075768;28;20100;-73
2023/05/07 09:44:34;;;;;;;24.67;16.17;;;13.90;99.90;;;;;;5058981;28;20070;-73
2023/05/07 09:47:01;;;;;;;22.30;16.33;;;14.00;99.90;;;;;;5059617;28;20036;-73
2023/05/07 09:49:30;;;;;;;20.75;15.52;;;14.00;99.90;;;;;;5041556;28;20028;-73
2023/05/07 09:51:59;;;;;;;22.58;16.42;;;13.90;99.90;;;;;;5059449;28;20127;-73
2023/05/07 09:54:25;;;;;;;22.63;16.08;;;14.00;99.90;;;;;;5052807;28;20038;-73
2023/05/07 09:56:52;;;;;;;20.80;15.50;;;14.00;99.90;;;;;;5060376;28;20116;-73
2023/05/07 09:59:20;;;;;;;21.83;15.88;;;14.00;99.90;;;;;;5075468;28;20095;-73
2023/05/07 10:01:46;;;;;;;21.02;15.18;;;14.10;99.90;;;;;;5055333;28;20047;-74
2023/05/07 10:04:12;;;;;;;24.17;15.48;;;14.20;99.90;;;;;;5083671;28;20279;-73
2023/05/07 10:06:38;;;;;;;21.35;15.57;;;14.20;99.90;;;;;;5084935;28;20042;-73
2023/05/07 10:09:05;;;;;;;21.88;15.98;;;14.30;99.90;;;;;;5068330;28;20306;-73
2023/05/07 10:11:33;;;;;;;19.50;14.30;;;14.40;99.90;;;;;;5076909;28;20103;-73
2023/05/07 10:14:01;;;;;;;23.52;15.88;;;14.50;99.90;;;;;;5051239;28;20028;-73
2023/05/07 10:16:31;;;;;;;20.65;15.07;;;14.50;99.90;;;;;;5056558;28;20036;-74
2023/05/07 10:18:58;;;;;;;20.75;14.73;;;14.60;99.90;;;;;;5066664;28;20041;-73
2023/05/07 10:21:26;;;;;;;21.83;16.17;;;14.60;99.90;;;;;;5064076;28;20041;-73
2023/05/07 10:24:24;;;;;;;19.45;14.52;;;14.60;99.90;;;;;;5066620;28;20053;-72
2023/05/07 10:26:52;;;;;;;20.85;15.05;;;14.60;99.90;;;;;;5066732;28;20041;-73
2023/05/07 10:29:21;;;;;;;19.65;14.57;;;14.70;99.90;;;;;;5065251;28;20359;-72
2023/05/07 10:32:04;;;;;;;20.48;15.07;;;14.60;99.90;;;;;;5063997;28;20047;-73
2023/05/07 10:34:37;;;;;;;20.05;15.07;;;14.70;99.90;;;;;;5077462;28;20369;-73
2023/05/07 10:37:04;;;;;;;20.23;14.60;;;14.70;99.90;;;;;;5062394;28;20031;-74
2023/05/07 10:39:30;;;;;;;19.80;14.15;;;14.70;99.90;;;;;;5077474;28;20049;-73
2023/05/07 10:41:57;;;;;;;19.35;13.65;;;14.70;99.90;;;;;;5082071;28;20105;-73
2023/05/07 10:44:27;;;;;;;19.42;13.55;;;14.70;99.90;;;;;;5093202;28;20237;-73
2023/05/07 10:47:10;;;;;;;18.17;13.32;;;14.70;99.90;;;;;;5066595;28;20285;-73
2023/05/07 10:49:56;;;;;;;20.98;14.93;;;14.70;99.90;;;;;;5075919;28;20246;-73
2023/05/07 10:52:25;;;;;;;18.88;14.07;;;14.70;99.90;;;;;;5083481;28;20036;-73
2023/05/07 10:55:24;;;;;;;20.30;13.43;;;14.70;99.90;;;;;;5080693;28;20035;-73
2023/05/07 10:57:50;;;;;;;18.52;13.30;;;14.80;99.90;;;;;;5071176;28;20040;-74
2023/05/07 11:00:25;;;;;;;18.60;13.73;;;14.90;99.90;;;;;;5087202;28;20077;-74
2023/05/07 11:03:00;;;;;;;18.52;13.10;;;15.00;99.90;;;;;;5083395;28;20032;-73
2023/05/07 11:05:28;;;;;;;19.70;13.30;;;15.00;99.90;;;;;;5083197;28;20300;-73
2023/05/07 11:07:55;;;;;;;16.55;12.75;;;15.10;99.90;;;;;;5076962;28;20052;-73
2023/05/07 11:10:21;;;;;;;18.00;12.45;;;15.10;99.90;;;;;;5072523;28;20506;-73
2023/05/07 11:12:48;;;;;;;17.52;13.23;;;15.30;99.90;;;;;;5068549;28;20033;-74
2023/05/07 11:15:17;;;;;;;18.23;13.85;;;15.30;99.90;;;;;;5075955;28;20044;-74
2023/05/07 11:17:59;;;;;;;16.90;12.75;;;15.40;99.90;;;;;;5067734;28;20036;-74
2023/05/07 11:20:50;;;;;;;18.15;13.13;;;15.60;99.90;;;;;;5068730;28;20061;-74
2023/05/07 11:23:34;;;;;;;18.55;12.85;;;15.60;99.90;;;;;;5071287;28;20090;-73
2023/05/07 11:26:00;;;;;;;17.13;12.65;;;15.70;99.90;;;;;;5070402;28;20105;-74
2023/05/07 11:28:28;;;;;;;18.92;12.70;;;15.70;99.90;;;;;;5053676;28;20182;-74
2023/05/07 11:30:55;;;;;;;18.52;12.65;;;15.80;99.90;;;;;;5059971;28;20029;-74
2023/05/07 11:33:21;;;;;;;16.63;11.98;;;15.90;99.90;;;;;;5073701;28;20366;-73
2023/05/07 11:35:47;;;;;;;18.48;12.70;;;16.00;99.90;;;;;;5080096;28;20032;-73
2023/05/07 11:38:13;;;;;;;15.73;11.77;;;16.00;99.90;;;;;;5046311;28;20111;-74
2023/05/07 11:40:56;;;;;;;16.33;11.90;;;16.10;99.90;;;;;;5073090;28;20041;-74
2023/05/07 11:43:22;;;;;;;16.60;12.30;;;16.10;99.90;;;;;;5075513;28;20028;-73
2023/05/07 11:45:49;;;;;;;15.65;11.32;;;16.20;99.90;;;;;;5062886;28;20300;-74
2023/05/07 11:48:16;;;;;;;16.35;12.27;;;16.30;99.90;;;;;;5085396;28;20024;-74
2023/05/07 11:51:03;;;;;;;19.02;12.10;;;16.30;99.90;;;;;;5082338;28;20071;-73
2023/05/07 11:53:37;;;;;;;17.65;12.32;;;16.30;99.90;;;;;;5065609;28;20032;-73
2023/05/07 11:56:10;;;;;;;16.63;11.70;;;16.50;99.90;;;;;;5085038;28;20020;-73
2023/05/07 11:58:36;;;;;;;15.60;10.95;;;16.60;99.90;;;;;;5082751;28;20282;-74
2023/05/07 12:01:02;;;;;;;17.08;12.43;;;16.70;99.90;;;;;;5043616;28;20037;-73
2023/05/07 12:03:28;;;;;;;14.77;11.27;;;16.90;99.90;;;;;;5073861;28;20317;-73
2023/05/07 12:05:54;;;;;;;15.65;11.68;;;17.10;99.90;;;;;;5067102;28;20071;-74
2023/05/07 12:08:21;;;;;;;15.23;10.75;;;17.10;99.90;;;;;;5084307;28;20049;-74
2023/05/07 12:10:49;;;;;;;14.57;10.88;;;17.10;99.90;;;;;;5069070;28;20414;-73
2023/05/07 12:13:20;;;;;;;15.25;10.93;;;17.10;99.90;;;;;;5058703;28;20442;-73
2023/05/07 12:15:46;;;;;;;15.45;11.15;;;17.20;99.90;;;;;;5080155;28;20497;-73
2023/05/07 12:18:12;;;;;;;16.90;11.38;;;17.20;99.90;;;;;;5060355;28;20986;-73
2023/05/07 12:20:39;;;;;;;16.30;11.40;;;17.40;99.90;;;;;;5052428;28;20514;-73
2023/05/07 12:23:05;;;;;;;14.68;11.02;;;17.50;99.90;;;;;;5049899;28;20040;-73
2023/05/07 12:25:36;;;;;;;14.45;10.82;;;17.50;99.90;;;;;;5044431;28;20041;-74
2023/05/07 12:28:05;;;;;;;14.82;10.90;;;17.50;99.90;;;;;;5051462;28;20041;-73